createdAt,value
2019-02-11T00:01:54.815Z,98.87
2019-02-11T00:04:37.885Z,98.40
2019-02-11T00:07:28.272Z,98.38
2019-02-11T00:10:11.686Z,98.35
2019-02-11T00:12:43.073Z,98.47
2019-02-11T00:15:33.511Z,98.57
2019-02-11T00:18:23.916Z,98.85
2019-02-11T00:21:06.577Z,98.89
2019-02-11T00:23:49.506Z,98.59
2019-02-11T00:26:39.922Z,98.80
2019-02-11T00:29:23.153Z,98.21
2019-02-11T00:32:13.529Z,98.02
2019-02-11T00:34:56.818Z,98.29
2019-02-11T00:37:47.674Z,98.37
2019-02-11T00:40:51.708Z,98.07
2019-02-11T00:43:42.116Z,98.11
2019-02-11T00:46:25.056Z,98.10
2019-02-11T00:49:15.797Z,98.33
2019-02-11T00:51:59.028Z,98.76
2019-02-11T00:54:49.521Z,98.83
2019-02-11T00:57:33.000Z,98.62
2019-02-11T01:00:23.389Z,98.80
2019-02-11T01:03:06.283Z,98.81
2019-02-11T01:05:56.697Z,98.77
2019-02-11T01:08:39.475Z,98.70
2019-02-11T01:14:57.879Z,98.87
2019-02-11T01:17:48.265Z,98.18
2019-02-11T01:20:31.534Z,98.20
2019-02-11T01:23:21.948Z,98.34
2019-02-11T01:26:04.598Z,98.33
2019-02-11T01:28:54.993Z,98.14
2019-02-11T01:31:38.671Z,98.24
2019-02-11T01:34:29.094Z,98.04
2019-02-11T01:37:12.731Z,98.34
2019-02-11T01:40:03.201Z,98.46
2019-02-11T01:42:46.312Z,98.72
2019-02-11T01:45:37.132Z,98.96
2019-02-11T01:48:20.262Z,98.95
2019-02-11T01:51:10.633Z,98.98
2019-02-11T01:54:13.305Z,98.67
2019-02-11T01:57:04.035Z,98.28
2019-02-11T01:59:47.003Z,98.21
2019-02-11T02:02:37.485Z,97.70
2019-02-11T02:05:20.385Z,97.86
2019-02-11T02:11:13.300Z,98.19
2019-02-11T02:14:03.719Z,98.54
2019-02-11T02:16:47.087Z,98.00
2019-02-11T02:19:37.504Z,97.79
2019-02-11T02:22:21.016Z,97.25
2019-02-11T02:25:12.395Z,97.32
2019-02-11T02:27:55.462Z,97.19
2019-02-11T02:34:03.755Z,97.56
2019-02-11T02:36:54.148Z,97.27
2019-02-11T02:39:37.654Z,97.28
2019-02-11T02:42:28.014Z,97.64
2019-02-11T02:45:10.669Z,97.86
2019-02-11T02:48:01.041Z,97.75
2019-02-11T02:50:43.721Z,97.92
2019-02-11T02:53:26.472Z,97.66
2019-02-11T02:56:16.815Z,97.34
2019-02-11T02:59:00.211Z,97.59
2019-02-11T03:01:50.581Z,97.87
2019-02-11T03:04:33.485Z,98.39
2019-02-11T03:07:23.859Z,98.51
2019-02-11T03:10:07.812Z,98.55
2019-02-11T03:12:58.175Z,98.81
2019-02-11T03:15:40.852Z,98.89
2019-02-11T03:18:31.227Z,98.05
2019-02-11T03:21:14.271Z,97.73
2019-02-11T03:24:04.622Z,97.90
2019-02-11T03:26:47.897Z,97.74
2019-02-11T03:29:38.258Z,97.56
2019-02-11T03:32:21.517Z,97.35
2019-02-11T03:35:11.848Z,97.39
2019-02-11T03:38:02.211Z,97.25
2019-02-11T03:40:45.387Z,96.61
2019-02-11T03:43:35.753Z,96.52
2019-02-11T03:46:18.418Z,96.69
2019-02-11T03:49:08.753Z,96.90
2019-02-11T03:51:51.955Z,96.71
2019-02-11T03:54:34.646Z,96.90
2019-02-11T03:57:24.964Z,97.03
2019-02-11T04:00:08.474Z,96.78
2019-02-11T04:02:58.882Z,96.63
2019-02-11T04:05:41.382Z,96.33
2019-02-11T04:08:31.752Z,96.67
2019-02-11T04:11:14.239Z,96.61
2019-02-11T04:14:04.576Z,96.36
2019-02-11T04:16:47.721Z,96.18
2019-02-11T04:19:38.075Z,95.93
2019-02-11T04:22:21.244Z,95.53
2019-02-11T04:25:11.579Z,94.98
2019-02-11T04:27:54.900Z,95.01
2019-02-11T04:30:45.260Z,95.58
2019-02-11T04:33:28.101Z,95.62
2019-02-11T04:36:18.421Z,94.79
2019-02-11T04:39:01.325Z,93.63
2019-02-11T04:41:51.650Z,93.81
2019-02-11T04:44:35.046Z,93.39
2019-02-11T04:47:25.344Z,93.36
2019-02-11T04:50:08.397Z,92.76
2019-02-11T04:52:58.733Z,92.71
2019-02-11T04:55:42.339Z,92.89
2019-02-11T04:58:32.684Z,92.63
2019-02-11T05:01:23.048Z,91.89
2019-02-11T05:04:06.483Z,91.88
2019-02-11T05:06:56.822Z,91.79
2019-02-11T05:09:59.731Z,91.51
2019-02-11T05:12:50.106Z,91.02
2019-02-11T05:15:33.672Z,91.09
2019-02-11T05:18:24.030Z,91.46
2019-02-11T05:21:07.461Z,91.43
2019-02-11T05:23:57.798Z,91.31
2019-02-11T05:26:40.818Z,91.56
2019-02-11T05:29:31.188Z,91.70
2019-02-11T05:32:13.997Z,91.93
2019-02-11T05:38:33.158Z,91.37
2019-02-11T05:41:23.480Z,90.16
2019-02-11T05:44:06.609Z,90.19
2019-02-11T05:46:56.961Z,89.67
2019-02-11T05:49:40.094Z,89.89
2019-02-11T05:52:30.503Z,90.36
2019-02-11T05:55:13.693Z,90.46
2019-02-11T05:58:04.022Z,90.88
2019-02-11T06:00:46.827Z,91.05
2019-02-11T06:03:37.156Z,91.14
2019-02-11T06:06:20.647Z,90.88
2019-02-11T06:09:11.033Z,91.09
2019-02-11T06:11:53.786Z,91.14
2019-02-11T06:14:44.167Z,90.63
2019-02-11T06:17:27.365Z,91.22
2019-02-11T06:20:17.724Z,91.62
2019-02-11T06:23:00.868Z,91.79
2019-02-11T06:25:51.259Z,92.20
2019-02-11T06:28:34.478Z,92.33
2019-02-11T06:31:24.826Z,92.77
2019-02-11T06:34:07.815Z,92.61
2019-02-11T06:36:58.210Z,92.67
2019-02-11T06:39:41.588Z,92.55
2019-02-11T06:42:31.948Z,92.61
2019-02-11T06:45:22.353Z,93.04
2019-02-11T06:48:05.650Z,93.41
2019-02-11T06:50:56.001Z,93.64
2019-02-11T06:53:39.338Z,93.85
2019-02-11T06:56:22.330Z,93.76
2019-02-11T06:59:12.680Z,94.23
2019-02-11T07:01:55.480Z,94.48
2019-02-11T07:04:45.835Z,93.44
2019-02-11T07:07:29.383Z,93.22
2019-02-11T07:10:19.744Z,92.98
2019-02-11T07:13:02.950Z,93.40
2019-02-11T07:15:53.326Z,92.71
2019-02-11T07:18:37.177Z,92.50
2019-02-11T07:21:40.009Z,91.82
2019-02-11T07:24:30.370Z,91.46
2019-02-11T07:27:13.601Z,91.31
2019-02-11T07:33:33.267Z,91.13
2019-02-11T07:36:23.673Z,90.80
2019-02-11T07:39:14.056Z,90.24
2019-02-11T07:42:15.778Z,90.94
2019-02-11T07:48:26.743Z,90.21
2019-02-11T07:51:17.083Z,90.19
2019-02-11T07:53:59.680Z,90.13
2019-02-11T07:56:42.525Z,90.35
2019-02-11T07:59:33.303Z,90.28
2019-02-11T08:02:16.289Z,90.13
2019-02-11T08:05:06.821Z,89.95
2019-02-11T08:07:49.444Z,90.27
2019-02-11T08:10:39.822Z,89.82
2019-02-11T08:13:22.976Z,90.06
2019-02-11T08:16:13.351Z,89.69
2019-02-11T08:18:56.239Z,89.36
2019-02-11T08:21:46.716Z,89.65
2019-02-11T08:24:49.897Z,89.53
2019-02-11T08:27:40.299Z,88.61
2019-02-11T08:30:23.332Z,88.25
2019-02-11T08:33:13.706Z,88.35
2019-02-11T08:36:16.316Z,88.90
2019-02-11T08:42:30.131Z,87.40
2019-02-11T08:45:20.482Z,84.89
2019-02-11T08:48:23.018Z,85.67
2019-02-11T08:51:13.429Z,85.43
2019-02-11T08:53:56.845Z,75.78
2019-02-11T08:56:47.180Z,75.74
2019-02-11T08:59:30.487Z,77.37
2019-02-11T09:02:20.856Z,79.18
2019-02-11T09:05:03.523Z,80.41
2019-02-11T09:07:53.908Z,81.31
2019-02-11T09:10:37.325Z,82.77
2019-02-11T09:13:27.659Z,83.93
2019-02-11T09:16:10.326Z,83.89
2019-02-11T09:19:00.735Z,84.15
2019-02-11T09:21:44.066Z,84.13
2019-02-11T09:24:27.008Z,85.00
2019-02-11T09:27:17.351Z,85.30
2019-02-11T09:30:00.613Z,84.94
2019-02-11T09:32:43.649Z,85.05
2019-02-11T09:35:34.025Z,84.52
2019-02-11T09:38:24.626Z,83.94
2019-02-11T09:41:07.266Z,83.35
2019-02-11T09:43:57.689Z,82.97
2019-02-11T09:46:40.570Z,82.31
2019-02-11T09:49:31.096Z,82.47
2019-02-11T09:52:13.594Z,82.42
2019-02-11T09:58:32.606Z,82.79
2019-02-11T10:01:23.002Z,82.49
2019-02-11T10:04:06.431Z,82.71
2019-02-11T10:06:56.818Z,83.38
2019-02-11T10:09:47.936Z,84.06
2019-02-11T10:12:51.720Z,83.96
2019-02-11T10:15:42.081Z,83.62
2019-02-11T10:18:25.169Z,82.78
2019-02-11T10:21:15.629Z,83.58
2019-02-11T10:23:58.472Z,84.38
2019-02-11T10:26:48.841Z,84.72
2019-02-11T10:29:31.499Z,85.18
2019-02-11T10:32:14.298Z,85.80
2019-02-11T10:35:04.776Z,86.35
2019-02-11T10:37:55.151Z,86.49
2019-02-11T10:40:38.453Z,86.33
2019-02-11T10:43:28.819Z,87.03
2019-02-11T10:46:11.957Z,87.08
2019-02-11T10:49:02.332Z,87.23
2019-02-11T10:51:44.973Z,86.79
2019-02-11T10:54:35.330Z,86.50
2019-02-11T10:57:18.058Z,87.49
2019-02-11T11:00:10.953Z,87.70
2019-02-11T11:02:53.559Z,87.59
2019-02-11T11:05:43.930Z,87.87
2019-02-11T11:08:26.904Z,87.00
2019-02-11T11:11:17.252Z,88.04
2019-02-11T11:14:00.068Z,88.86
2019-02-11T11:16:50.438Z,89.57
2019-02-11T11:19:33.576Z,90.35
2019-02-11T11:22:23.888Z,90.75
2019-02-11T11:25:06.607Z,91.31
2019-02-11T11:27:56.944Z,91.81
2019-02-11T11:30:59.688Z,92.35
2019-02-11T11:33:42.387Z,92.49
2019-02-11T11:36:32.722Z,92.23
2019-02-11T11:42:25.096Z,91.10
2019-02-11T11:45:10.021Z,90.96
2019-02-11T11:48:00.372Z,90.44
2019-02-11T11:50:43.017Z,89.80
2019-02-11T11:53:33.392Z,89.65
2019-02-11T11:56:16.201Z,89.29
2019-02-11T11:59:06.775Z,88.37
2019-02-11T12:02:09.929Z,87.27
2019-02-11T12:05:00.316Z,85.44
2019-02-11T12:08:04.472Z,82.25
2019-02-11T12:10:54.852Z,78.55
2019-02-11T12:13:37.867Z,75.05
2019-02-11T12:16:28.231Z,74.30
2019-02-11T12:19:11.689Z,74.69
2019-02-11T12:22:02.066Z,73.20
2019-02-11T12:24:44.675Z,72.60
2019-02-11T12:27:35.091Z,68.83
2019-02-11T12:30:19.320Z,67.95
2019-02-11T12:33:09.743Z,65.33
2019-02-11T12:35:53.007Z,64.60
2019-02-11T12:38:43.393Z,64.39
2019-02-11T12:41:26.159Z,65.84
2019-02-11T12:44:16.506Z,64.79
2019-02-11T12:47:13.264Z,66.04
2019-02-11T12:49:52.063Z,66.86
2019-02-11T12:52:34.659Z,66.13
2019-02-11T12:55:17.425Z,66.13
2019-02-11T12:58:07.806Z,65.61
2019-02-11T13:00:50.391Z,64.45
2019-02-11T13:03:40.782Z,61.67
2019-02-11T13:06:23.970Z,61.13
2019-02-11T13:09:06.978Z,61.29
2019-02-11T13:11:57.422Z,60.51
2019-02-11T13:14:40.511Z,59.83
2019-02-11T13:17:34.429Z,59.58
2019-02-11T13:20:42.700Z,56.85
2019-02-11T13:23:33.131Z,55.77
2019-02-11T13:26:36.528Z,54.59
2019-02-11T13:29:26.908Z,53.74
2019-02-11T13:32:10.800Z,54.33
2019-02-11T13:34:54.569Z,53.05
2019-02-11T13:37:45.065Z,51.81
2019-02-11T13:40:35.508Z,53.94
2019-02-11T13:43:18.308Z,52.40
2019-02-11T13:46:08.702Z,53.58
2019-02-11T13:48:51.791Z,55.61
2019-02-11T13:51:42.282Z,55.13
2019-02-11T13:54:24.167Z,56.60
2019-02-11T13:57:06.875Z,58.38
2019-02-11T13:59:49.522Z,57.69
2019-02-11T14:06:31.504Z,59.33
2019-02-11T14:09:14.279Z,61.50
2019-02-11T14:12:04.657Z,62.40
2019-02-11T14:14:35.945Z,62.99
2019-02-11T14:21:25.754Z,63.23
2019-02-11T14:24:09.090Z,62.77
2019-02-11T14:26:59.501Z,61.14
2019-02-11T14:29:42.774Z,57.18
2019-02-11T14:32:33.165Z,51.41
2019-02-11T14:35:16.931Z,51.43
2019-02-11T14:38:07.373Z,51.86
2019-02-11T14:40:50.066Z,50.08
2019-02-11T14:43:40.514Z,48.31
2019-02-11T14:46:23.462Z,47.84
2019-02-11T14:49:13.898Z,49.19
2019-02-11T14:51:56.591Z,47.80
2019-02-11T14:54:47.861Z,49.11
2019-02-11T14:57:51.581Z,47.62
2019-02-11T15:00:41.947Z,48.43
2019-02-11T15:03:24.576Z,49.78
2019-02-11T15:06:14.951Z,48.91
2019-02-11T15:08:57.600Z,48.97
2019-02-11T15:11:40.652Z,48.82
2019-02-11T15:14:31.006Z,49.26
2019-02-11T15:17:13.784Z,49.04
2019-02-11T15:20:04.205Z,48.37
2019-02-11T15:22:47.643Z,47.65
2019-02-11T15:25:37.981Z,48.79
2019-02-11T15:28:21.345Z,47.79
2019-02-11T15:31:11.715Z,48.60
2019-02-11T15:33:54.868Z,49.24
2019-02-11T15:36:45.214Z,48.99
2019-02-11T15:39:28.320Z,49.94
2019-02-11T15:42:18.684Z,50.64
2019-02-11T15:45:02.229Z,49.84
2019-02-11T15:47:52.573Z,51.45
2019-02-11T15:50:35.976Z,51.02
2019-02-11T15:53:26.318Z,51.61
2019-02-11T15:56:09.147Z,51.85
2019-02-11T15:58:59.520Z,51.61
2019-02-11T16:01:42.865Z,52.92
2019-02-11T16:04:33.214Z,52.94
2019-02-11T16:07:36.178Z,53.53
2019-02-11T16:10:20.015Z,52.65
2019-02-11T16:13:10.451Z,53.59
2019-02-11T16:15:53.548Z,54.05
2019-02-11T16:18:51.625Z,55.31
2019-02-11T16:21:48.710Z,55.72
2019-02-11T16:27:51.460Z,54.37
2019-02-11T16:30:41.866Z,53.94
2019-02-11T16:33:25.478Z,53.61
2019-02-11T16:36:15.898Z,54.24
2019-02-11T16:42:29.469Z,55.45
2019-02-11T16:45:12.035Z,55.74
2019-02-11T16:48:02.743Z,55.89
2019-02-11T16:50:45.513Z,56.76
2019-02-11T16:53:36.483Z,56.44
2019-02-11T16:56:19.421Z,56.98
2019-02-11T16:59:02.707Z,58.06
2019-02-11T17:01:53.094Z,57.93
2019-02-11T17:04:35.801Z,58.88
2019-02-11T17:07:26.213Z,59.64
2019-02-11T17:10:09.894Z,59.83
2019-02-11T17:13:00.254Z,60.11
2019-02-11T17:15:43.400Z,61.20
2019-02-11T17:18:33.822Z,63.13
2019-02-11T17:21:17.232Z,63.68
2019-02-11T17:24:07.648Z,64.07
2019-02-11T17:26:50.620Z,65.48
2019-02-11T17:29:40.972Z,65.58
2019-02-11T17:32:23.881Z,66.05
2019-02-11T17:35:07.194Z,65.92
2019-02-11T17:37:57.598Z,66.53
2019-02-11T17:40:40.807Z,67.29
2019-02-11T17:43:23.704Z,67.55
2019-02-11T17:46:14.115Z,67.49
2019-02-11T17:49:17.957Z,67.58
2019-02-11T17:52:10.686Z,67.54
2019-02-11T17:54:53.485Z,67.23
2019-02-11T17:57:43.995Z,67.71
2019-02-11T18:00:31.801Z,67.33
2019-02-11T18:03:42.115Z,68.25
2019-02-11T18:06:25.312Z,68.77
2019-02-11T18:12:18.071Z,69.05
2019-02-11T18:15:27.638Z,69.67
2019-02-11T18:18:10.715Z,70.35
2019-02-11T18:21:01.093Z,70.24
2019-02-11T18:23:43.891Z,70.72
2019-02-11T18:26:34.246Z,70.32
2019-02-11T18:29:17.236Z,71.03
2019-02-11T18:32:07.617Z,71.47
2019-02-11T18:34:50.340Z,72.07
2019-02-11T18:37:40.677Z,72.58
2019-02-11T18:40:23.462Z,73.14
2019-02-11T18:43:13.839Z,73.18
2019-02-11T18:45:56.634Z,72.68
2019-02-11T18:48:46.990Z,72.65
2019-02-11T18:51:29.745Z,72.84
2019-02-11T18:54:20.121Z,73.70
2019-02-11T18:57:03.046Z,73.73
2019-02-11T18:59:53.468Z,74.23
2019-02-11T19:02:36.755Z,74.35
2019-02-11T19:05:27.144Z,74.40
2019-02-11T19:08:10.481Z,74.87
2019-02-11T19:11:00.949Z,75.55
2019-02-11T19:13:43.938Z,75.87
2019-02-11T19:16:34.384Z,75.41
2019-02-11T19:19:16.991Z,75.01
2019-02-11T19:22:07.433Z,74.93
2019-02-11T19:25:10.796Z,75.00
2019-02-11T19:28:01.359Z,75.03
2019-02-11T19:30:43.952Z,74.52
2019-02-11T19:33:34.351Z,74.81
2019-02-11T19:36:17.478Z,74.47
2019-02-11T19:42:18.267Z,73.34
2019-02-11T19:45:10.302Z,74.14
2019-02-11T19:48:01.262Z,72.13
2019-02-11T19:50:51.996Z,71.72
2019-02-11T19:53:35.130Z,72.51
2019-02-11T19:56:25.606Z,72.77
2019-02-11T19:59:08.726Z,73.37
2019-02-11T20:01:59.153Z,73.66
2019-02-11T20:04:41.847Z,73.95
2019-02-11T20:07:32.974Z,74.45
2019-02-11T20:10:16.029Z,74.84
2019-02-11T20:13:06.585Z,75.20
2019-02-11T20:15:49.663Z,75.53
2019-02-11T20:18:40.071Z,75.82
2019-02-11T20:21:23.607Z,76.20
2019-02-11T20:24:14.065Z,76.64
2019-02-11T20:26:56.820Z,77.10
2019-02-11T20:29:47.153Z,77.44
2019-02-11T20:32:29.766Z,78.05
2019-02-11T20:35:20.175Z,78.28
2019-02-11T20:38:03.730Z,78.63
2019-02-11T20:40:54.823Z,78.91
2019-02-11T20:43:38.412Z,78.96
2019-02-11T20:46:28.782Z,78.61
2019-02-11T20:49:11.537Z,78.77
2019-02-11T20:52:01.918Z,78.84
2019-02-11T20:54:45.495Z,79.01
2019-02-11T20:57:35.867Z,79.17
2019-02-11T21:00:19.279Z,78.94
2019-02-11T21:03:09.684Z,79.11
2019-02-11T21:05:53.249Z,78.98
2019-02-11T21:08:43.636Z,79.06
2019-02-11T21:11:26.722Z,79.17
2019-02-11T21:14:17.077Z,79.12
2019-02-11T21:17:01.311Z,79.33
2019-02-11T21:20:32.443Z,79.52
2019-02-11T21:23:20.044Z,79.50
2019-02-11T21:26:10.411Z,79.62
2019-02-11T21:28:53.895Z,79.78
2019-02-11T21:35:12.595Z,79.46
2019-02-11T21:38:03.168Z,78.69
2019-02-11T21:40:45.723Z,78.42
2019-02-11T21:43:36.151Z,78.36
2019-02-11T21:46:18.901Z,78.12
2019-02-11T21:49:09.282Z,78.40
2019-02-11T21:51:52.323Z,78.36
2019-02-11T21:54:42.682Z,78.21
2019-02-11T21:57:26.281Z,78.00
2019-02-11T22:00:10.140Z,77.96
2019-02-11T22:03:00.609Z,78.02
2019-02-11T22:05:43.815Z,77.86
2019-02-11T22:08:34.194Z,77.71
2019-02-11T22:11:17.400Z,77.45
2019-02-11T22:14:07.766Z,77.67
2019-02-11T22:16:50.545Z,77.43
2019-02-11T22:19:40.968Z,77.33
2019-02-11T22:22:23.655Z,77.09
2019-02-11T22:25:14.155Z,77.15
2019-02-11T22:27:57.566Z,76.93
2019-02-11T22:30:48.542Z,76.77
2019-02-11T22:33:31.901Z,77.33
2019-02-11T22:36:22.255Z,77.97
2019-02-11T22:39:06.971Z,78.24
2019-02-11T22:41:57.345Z,78.34
2019-02-11T22:44:40.223Z,78.33
2019-02-11T22:47:30.591Z,78.34
2019-02-11T22:50:13.099Z,78.12
2019-02-11T22:53:03.449Z,78.53
2019-02-11T22:55:46.795Z,78.42
2019-02-11T22:58:37.197Z,78.09
2019-02-11T23:01:21.077Z,78.09
2019-02-11T23:04:11.386Z,78.00
2019-02-11T23:06:54.320Z,77.89
2019-02-11T23:09:44.612Z,77.75
2019-02-11T23:12:28.085Z,77.57
2019-02-11T23:15:18.421Z,77.32
2019-02-11T23:18:01.047Z,77.20
2019-02-11T23:20:52.358Z,77.67
2019-02-11T23:23:55.587Z,77.17
2019-02-11T23:26:45.987Z,77.96
2019-02-11T23:29:29.339Z,78.71
2019-02-11T23:32:19.713Z,79.25
2019-02-11T23:35:03.161Z,79.26
2019-02-11T23:37:53.557Z,79.37
2019-02-11T23:40:36.151Z,79.35
2019-02-11T23:43:26.474Z,79.74
2019-02-11T23:46:09.250Z,79.80
2019-02-11T23:48:59.622Z,79.91
2019-02-11T23:51:42.497Z,79.82
2019-02-11T23:54:32.873Z,79.70
2019-02-11T23:57:16.122Z,79.94
